Time;durP1;ratioP1;P1;durP2;ratioP2;P2;SDS_P1;SDS_P2;PMS_P1;PMS_P2;Temp;Humidity;BMP_temperature;BMP_pressure;BME280_temperature;BME280_humidity;BME280_pressure;Samples;Min_cycle;Max_cycle;Signal;HPM_P1;HPM_P2
2022/03/03 00:00:19;;;;;;;92.38;47.95;;;5.60;89.30;;;;;;4804524;29;20055;-74
2022/03/03 00:02:47;;;;;;;102.95;48.83;;;5.60;89.30;;;;;;4804585;29;20054;-73
2022/03/03 00:05:15;;;;;;;93.35;46.45;;;5.60;89.30;;;;;;4804318;29;20046;-73
2022/03/03 00:07:43;;;;;;;89.43;46.42;;;5.70;89.30;;;;;;4803990;29;20055;-74
2022/03/03 00:10:11;;;;;;;93.50;45.22;;;5.60;89.30;;;;;;4804532;29;20047;-73
2022/03/03 00:12:38;;;;;;;96.05;47.83;;;5.60;89.20;;;;;;4804560;29;20058;-73
2022/03/03 00:15:06;;;;;;;86.63;43.53;;;5.60;89.20;;;;;;4805199;29;20062;-74
2022/03/03 00:17:34;;;;;;;88.18;43.38;;;5.60;89.20;;;;;;4804904;29;20395;-73
2022/03/03 00:20:03;;;;;;;89.47;44.33;;;5.60;89.20;;;;;;4804700;29;20047;-73
2022/03/03 00:22:30;;;;;;;85.88;42.47;;;5.60;89.20;;;;;;4804359;29;20074;-73
2022/03/03 00:24:58;;;;;;;83.47;43.22;;;5.60;89.20;;;;;;4800346;29;20047;-73
2022/03/03 00:27:26;;;;;;;77.45;41.67;;;5.60;89.10;;;;;;4790791;29;20389;-73
2022/03/03 00:29:54;;;;;;;80.20;43.28;;;5.60;89.10;;;;;;4804459;29;20418;-73
2022/03/03 00:32:21;;;;;;;81.05;41.55;;;5.60;89.10;;;;;;4804454;29;20123;-73
2022/03/03 00:34:49;;;;;;;85.95;42.55;;;5.60;89.10;;;;;;4807579;29;20385;-73
2022/03/03 00:37:17;;;;;;;86.13;43.70;;;5.60;89.10;;;;;;4807431;29;20054;-73
2022/03/03 00:39:45;;;;;;;87.53;42.85;;;5.60;89.10;;;;;;4807868;29;20497;-73
2022/03/03 00:42:12;;;;;;;83.65;43.50;;;5.60;89.10;;;;;;4807491;29;20046;-73
2022/03/03 00:44:40;;;;;;;83.15;43.55;;;5.60;89.00;;;;;;4807931;29;20061;-73
2022/03/03 00:47:08;;;;;;;82.45;41.20;;;5.60;89.00;;;;;;4806061;29;20509;-74
2022/03/03 00:49:36;;;;;;;85.57;42.55;;;5.60;89.00;;;;;;4805687;29;20050;-73
2022/03/03 00:52:04;;;;;;;79.00;42.30;;;5.60;89.00;;;;;;4805441;29;20498;-72
2022/03/03 00:54:32;;;;;;;81.60;41.92;;;5.60;88.90;;;;;;4818370;29;20490;-73
2022/03/03 00:56:59;;;;;;;74.63;40.08;;;5.60;88.90;;;;;;4820766;29;20058;-73
2022/03/03 00:59:27;;;;;;;74.53;39.40;;;5.60;88.90;;;;;;4807523;29;20051;-72
2022/03/03 01:01:54;;;;;;;78.47;40.13;;;5.60;88.80;;;;;;4805667;29;20074;-72
2022/03/03 01:04:22;;;;;;;78.80;41.42;;;5.60;88.80;;;;;;4807452;29;20055;-72
2022/03/03 01:06:50;;;;;;;81.43;40.55;;;5.60;88.70;;;;;;4807189;29;20055;-73
2022/03/03 01:09:18;;;;;;;78.47;40.63;;;5.60;88.70;;;;;;4807199;29;20054;-72
2022/03/03 01:11:46;;;;;;;80.38;39.95;;;5.60;88.60;;;;;;4806278;29;20047;-73
2022/03/03 01:14:14;;;;;;;75.75;40.92;;;5.60;88.60;;;;;;4806891;29;20058;-72
2022/03/03 01:16:41;;;;;;;79.38;40.53;;;5.60;88.60;;;;;;4806187;29;20078;-73
2022/03/03 01:19:09;;;;;;;82.82;40.90;;;5.60;88.60;;;;;;4805933;29;20043;-73
2022/03/03 01:21:36;;;;;;;81.47;39.15;;;5.60;88.50;;;;;;4807155;29;20405;-73
2022/03/03 01:24:05;;;;;;;79.93;41.20;;;5.60;88.50;;;;;;4788898;29;20144;-73
2022/03/03 01:26:32;;;;;;;81.85;40.78;;;5.60;88.50;;;;;;4815279;29;20055;-73
2022/03/03 01:29:00;;;;;;;76.60;39.58;;;5.60;88.50;;;;;;4801060;29;20064;-73
2022/03/03 01:31:30;;;;;;;70.18;37.00;;;5.60;88.50;;;;;;4787532;30;20072;-73
2022/03/03 01:33:57;;;;;;;79.13;40.65;;;5.60;88.40;;;;;;4788614;30;20100;-73
2022/03/03 01:36:25;;;;;;;76.38;39.08;;;5.60;88.40;;;;;;4788937;30;20048;-73
2022/03/03 01:38:53;;;;;;;71.10;39.42;;;5.60;88.40;;;;;;4788628;30;20059;-73
2022/03/03 01:41:21;;;;;;;75.78;38.92;;;5.60;88.40;;;;;;4787049;30;20530;-73
2022/03/03 01:43:49;;;;;;;71.35;38.00;;;5.60;88.40;;;;;;4813184;29;20106;-73
2022/03/03 01:46:17;;;;;;;76.63;39.13;;;5.60;88.40;;;;;;4803874;29;20498;-74
2022/03/03 01:48:45;;;;;;;77.82;40.65;;;5.60;88.30;;;;;;4803112;29;20058;-74
2022/03/03 01:51:12;;;;;;;79.50;40.08;;;5.60;88.30;;;;;;4805356;29;20043;-74
2022/03/03 01:53:40;;;;;;;78.60;40.40;;;5.60;88.30;;;;;;4805265;29;20070;-74
2022/03/03 01:56:08;;;;;;;82.13;42.22;;;5.60;88.30;;;;;;4805931;29;20046;-74
2022/03/03 01:58:40;;;;;;;78.70;40.30;;;5.60;88.30;;;;;;4804935;29;20177;-74
2022/03/03 02:01:07;;;;;;;75.57;38.63;;;5.60;88.30;;;;;;4800193;29;20069;-74
2022/03/03 02:03:35;;;;;;;80.88;41.38;;;5.60;88.30;;;;;;4792891;29;20054;-73
2022/03/03 02:06:03;;;;;;;74.40;40.00;;;5.50;88.30;;;;;;4804475;29;20046;-74
2022/03/03 02:08:31;;;;;;;81.82;40.35;;;5.50;88.30;;;;;;4805038;29;20059;-74
2022/03/03 02:11:01;;;;;;;74.53;40.67;;;5.50;88.30;;;;;;4797469;29;20058;-75
2022/03/03 02:13:28;;;;;;;81.28;40.92;;;5.60;88.30;;;;;;4788376;30;20047;-74
2022/03/03 02:15:56;;;;;;;78.30;40.13;;;5.50;88.30;;;;;;4801950;29;20493;-73
2022/03/03 02:18:24;;;;;;;81.38;41.17;;;5.60;88.40;;;;;;4805891;29;20055;-73
2022/03/03 02:20:51;;;;;;;80.35;40.90;;;5.50;88.40;;;;;;4806134;29;20046;-73
2022/03/03 02:23:19;;;;;;;80.53;41.00;;;5.50;88.40;;;;;;4805582;29;20057;-73
2022/03/03 02:25:46;;;;;;;81.50;40.90;;;5.50;88.40;;;;;;4806172;29;20046;-73
2022/03/03 02:28:14;;;;;;;80.72;41.22;;;5.50;88.40;;;;;;4805505;29;20520;-73
2022/03/03 02:30:42;;;;;;;86.72;42.33;;;5.60;88.40;;;;;;4806079;29;20062;-73
2022/03/03 02:33:10;;;;;;;83.72;42.15;;;5.50;88.40;;;;;;4805739;29;20494;-73
2022/03/03 02:35:37;;;;;;;88.75;43.17;;;5.50;88.40;;;;;;4805384;29;20411;-73
2022/03/03 02:38:05;;;;;;;76.80;39.53;;;5.60;88.40;;;;;;4818302;29;20059;-73
2022/03/03 02:40:33;;;;;;;84.72;42.78;;;5.50;88.40;;;;;;4805109;29;20051;-73
2022/03/03 02:43:00;;;;;;;83.68;43.05;;;5.50;88.40;;;;;;4804288;29;20058;-73
2022/03/03 02:45:28;;;;;;;89.32;44.10;;;5.50;88.40;;;;;;4805845;29;20063;-72
2022/03/03 02:47:56;;;;;;;89.32;43.42;;;5.60;88.40;;;;;;4798475;29;20047;-73
2022/03/03 02:50:26;;;;;;;87.05;43.75;;;5.60;88.40;;;;;;4805327;29;20062;-72
2022/03/03 02:52:57;;;;;;;89.40;41.33;;;5.60;88.50;;;;;;4794683;29;20055;-73
2022/03/03 02:55:24;;;;;;;82.72;43.33;;;5.60;88.40;;;;;;4819325;29;20536;-73
2022/03/03 02:57:55;;;;;;;84.57;44.38;;;5.60;88.40;;;;;;4805621;29;20077;-73
2022/03/03 03:00:26;;;;;;;89.13;43.63;;;5.60;88.40;;;;;;4805610;29;20071;-73
2022/03/03 03:02:55;;;;;;;87.13;43.50;;;5.60;88.40;;;;;;4803706;29;20047;-74
2022/03/03 03:05:23;;;;;;;85.85;43.83;;;5.60;88.40;;;;;;4803735;29;20071;-73
2022/03/03 03:07:51;;;;;;;92.70;44.13;;;5.60;88.40;;;;;;4815546;29;20413;-72
2022/03/03 03:10:18;;;;;;;86.30;43.55;;;5.70;88.40;;;;;;4788796;29;20063;-72
2022/03/03 03:12:46;;;;;;;88.60;45.70;;;5.70;88.40;;;;;;4798413;29;20051;-72
2022/03/03 03:15:15;;;;;;;92.35;45.47;;;5.70;88.30;;;;;;4805317;29;20444;-73
2022/03/03 03:17:43;;;;;;;92.88;44.85;;;5.70;88.30;;;;;;4818589;29;20061;-73
2022/03/03 03:20:11;;;;;;;89.40;45.10;;;5.60;88.30;;;;;;4802713;29;20494;-73
2022/03/03 03:22:39;;;;;;;89.82;45.05;;;5.70;88.40;;;;;;4803685;29;20050;-73
2022/03/03 03:25:09;;;;;;;95.80;46.00;;;5.60;88.40;;;;;;4803982;29;20525;-73
2022/03/03 03:27:38;;;;;;;91.47;44.78;;;5.60;88.40;;;;;;4804380;29;20066;-74
2022/03/03 03:30:08;;;;;;;93.25;46.28;;;5.60;88.40;;;;;;4803823;29;20500;-74
2022/03/03 03:32:37;;;;;;;87.30;46.50;;;5.60;88.40;;;;;;4803632;29;20047;-74
2022/03/03 03:35:05;;;;;;;95.70;47.58;;;5.60;88.40;;;;;;4803790;29;20059;-74
2022/03/03 03:37:33;;;;;;;99.47;47.13;;;5.60;88.40;;;;;;4803449;29;20055;-73
2022/03/03 03:40:01;;;;;;;96.22;47.53;;;5.60;88.40;;;;;;4803900;29;20050;-74
2022/03/03 03:42:28;;;;;;;97.70;48.33;;;5.60;88.40;;;;;;4804776;29;20494;-73
2022/03/03 03:44:56;;;;;;;96.72;48.28;;;5.70;88.40;;;;;;4804600;29;20661;-72
2022/03/03 03:47:24;;;;;;;96.18;47.53;;;5.70;88.40;;;;;;4813762;29;20051;-73
2022/03/03 03:49:52;;;;;;;101.18;48.78;;;5.70;88.50;;;;;;4803409;29;20054;-73
2022/03/03 03:52:20;;;;;;;103.20;49.78;;;5.70;88.50;;;;;;4799699;29;20051;-74
2022/03/03 03:54:47;;;;;;;112.53;49.88;;;5.70;88.50;;;;;;4786895;29;20062;-73
2022/03/03 03:57:15;;;;;;;105.35;50.63;;;5.70;88.50;;;;;;4800553;29;20086;-73
2022/03/03 03:59:43;;;;;;;99.43;47.10;;;5.70;88.50;;;;;;4796365;29;20051;-73
2022/03/03 04:02:10;;;;;;;106.13;51.15;;;5.70;88.50;;;;;;4799433;29;20066;-73
2022/03/03 04:04:38;;;;;;;107.07;51.20;;;5.60;88.50;;;;;;4787758;29;20063;-73
2022/03/03 04:07:06;;;;;;;107.63;51.90;;;5.70;88.50;;;;;;4804400;29;20150;-73
2022/03/03 04:09:34;;;;;;;113.63;53.33;;;5.60;88.60;;;;;;4807779;29;20397;-73
2022/03/03 04:12:02;;;;;;;109.32;52.30;;;5.60;88.60;;;;;;4804263;29;20058;-73
2022/03/03 04:14:30;;;;;;;110.13;53.55;;;5.60;88.60;;;;;;4808270;29;20050;-73
2022/03/03 04:16:58;;;;;;;113.10;54.00;;;5.60;88.70;;;;;;4807903;29;20046;-74
2022/03/03 04:19:26;;;;;;;121.95;56.00;;;5.60;88.70;;;;;;4806252;29;20051;-73
2022/03/03 04:21:54;;;;;;;119.60;54.92;;;5.60;88.70;;;;;;4807382;29;20061;-73
2022/03/03 04:24:23;;;;;;;119.00;55.10;;;5.60;88.70;;;;;;4821044;29;20412;-74
2022/03/03 04:26:51;;;;;;;132.27;58.10;;;5.60;88.80;;;;;;4807918;29;20054;-73
2022/03/03 04:29:19;;;;;;;130.75;58.38;;;5.60;88.80;;;;;;4821743;29;20059;-73
2022/03/03 04:31:48;;;;;;;133.43;58.78;;;5.60;88.90;;;;;;4807177;29;20058;-73
2022/03/03 04:34:15;;;;;;;127.68;58.13;;;5.50;88.90;;;;;;4806681;29;20055;-73
2022/03/03 04:36:43;;;;;;;134.40;58.42;;;5.60;89.00;;;;;;4804068;29;20061;-73
2022/03/03 04:39:10;;;;;;;141.00;59.97;;;5.60;89.00;;;;;;4806189;29;20053;-74
2022/03/03 04:41:39;;;;;;;137.43;61.05;;;5.60;89.10;;;;;;4806306;29;20065;-73
2022/03/03 04:44:07;;;;;;;139.20;61.17;;;5.60;89.10;;;;;;4807111;29;20051;-74
2022/03/03 04:46:35;;;;;;;148.07;60.95;;;5.60;89.20;;;;;;4807732;29;20054;-73
2022/03/03 04:49:03;;;;;;;142.35;62.03;;;5.60;89.20;;;;;;4806056;29;20042;-74
2022/03/03 04:51:31;;;;;;;152.68;63.22;;;5.60;89.20;;;;;;4807555;29;20055;-73
2022/03/03 04:53:59;;;;;;;141.88;62.70;;;5.60;89.20;;;;;;4800971;29;20355;-73
2022/03/03 04:56:27;;;;;;;149.15;63.58;;;5.60;89.30;;;;;;4806494;29;20081;-73
2022/03/03 04:58:54;;;;;;;146.55;62.70;;;5.60;89.30;;;;;;4806286;29;20070;-73
2022/03/03 05:01:22;;;;;;;145.73;63.83;;;5.60;89.40;;;;;;4807331;29;20050;-73
2022/03/03 05:03:50;;;;;;;136.05;62.03;;;5.60;89.40;;;;;;4805392;29;20055;-73
2022/03/03 05:06:17;;;;;;;129.63;60.65;;;5.60;89.40;;;;;;4820454;29;20526;-73
2022/03/03 05:08:45;;;;;;;142.40;60.60;;;5.60;89.50;;;;;;4806126;29;20046;-73
2022/03/03 05:11:12;;;;;;;134.18;62.60;;;5.60;89.50;;;;;;4807254;29;20085;-73
2022/03/03 05:13:40;;;;;;;135.60;60.03;;;5.60;89.50;;;;;;4805506;29;20049;-73
2022/03/03 05:16:08;;;;;;;142.90;60.13;;;5.60;89.50;;;;;;4802553;29;20051;-73
2022/03/03 05:18:36;;;;;;;143.63;61.80;;;5.60;89.50;;;;;;4798185;29;20512;-73
2022/03/03 05:21:04;;;;;;;138.20;62.70;;;5.60;89.60;;;;;;4805288;29;20050;-73
2022/03/03 05:23:31;;;;;;;144.27;62.35;;;5.60;89.60;;;;;;4805412;29;20513;-73
2022/03/03 05:26:02;;;;;;;141.05;60.80;;;5.60;89.60;;;;;;4807049;29;20065;-73
2022/03/03 05:28:29;;;;;;;147.32;61.88;;;5.60;89.60;;;;;;4805436;29;20055;-72
2022/03/03 05:30:57;;;;;;;137.70;60.58;;;5.60;89.60;;;;;;4806347;29;20057;-72
2022/03/03 05:33:25;;;;;;;132.02;60.80;;;5.70;89.60;;;;;;4806668;29;20518;-73
2022/03/03 05:36:00;;;;;;;138.88;61.60;;;5.60;89.60;;;;;;4802846;29;20070;-73
2022/03/03 05:38:30;;;;;;;122.93;58.42;;;5.70;89.70;;;;;;4792474;29;20051;-73
2022/03/03 05:40:58;;;;;;;125.03;59.25;;;5.60;89.70;;;;;;4805814;29;20073;-73
2022/03/03 05:43:28;;;;;;;129.18;60.30;;;5.70;89.70;;;;;;4807140;29;20055;-73
2022/03/03 05:45:56;;;;;;;133.60;61.95;;;5.70;89.70;;;;;;4805208;29;20054;-73
2022/03/03 05:48:28;;;;;;;129.00;58.20;;;5.70;89.70;;;;;;4806876;29;20057;-73
2022/03/03 05:50:56;;;;;;;130.43;61.63;;;5.70;89.70;;;;;;4806936;29;20178;-73
2022/03/03 05:53:24;;;;;;;136.00;61.08;;;5.70;89.70;;;;;;4793831;29;20070;-73
2022/03/03 05:55:55;;;;;;;122.10;58.15;;;5.70;89.70;;;;;;4788333;29;20514;-73
2022/03/03 05:58:34;;;;;;;121.90;58.45;;;5.70;89.70;;;;;;4787052;30;20055;-73
2022/03/03 06:01:02;;;;;;;129.10;59.08;;;5.70;89.70;;;;;;4808981;29;20055;-73
2022/03/03 06:03:30;;;;;;;122.45;57.10;;;5.70;89.70;;;;;;4805189;29;20050;-73
2022/03/03 06:06:05;;;;;;;126.30;58.25;;;5.70;89.70;;;;;;4805307;29;20055;-73
2022/03/03 06:08:41;;;;;;;129.40;59.55;;;5.70;89.70;;;;;;4805505;29;20066;-73
2022/03/03 06:11:16;;;;;;;112.85;55.38;;;5.70;89.70;;;;;;4806087;29;20058;-74
2022/03/03 06:13:48;;;;;;;128.10;59.55;;;5.70;89.70;;;;;;4806467;29;20051;-74
2022/03/03 06:16:20;;;;;;;120.93;57.75;;;5.70;89.70;;;;;;4804946;29;20054;-74
2022/03/03 06:18:49;;;;;;;117.55;58.67;;;5.70;89.70;;;;;;4805921;29;20138;-74
2022/03/03 06:21:17;;;;;;;126.75;58.45;;;5.70;89.70;;;;;;4806376;29;20046;-74
2022/03/03 06:23:45;;;;;;;124.20;59.58;;;5.70;89.70;;;;;;4805896;29;20059;-73
2022/03/03 06:26:16;;;;;;;123.97;59.30;;;5.70;89.70;;;;;;4798825;29;20055;-74
2022/03/03 06:28:45;;;;;;;121.25;56.58;;;5.70;89.70;;;;;;4804545;29;20050;-74
2022/03/03 06:31:14;;;;;;;117.80;58.28;;;5.70;89.70;;;;;;4802587;29;20054;-74
2022/03/03 06:33:43;;;;;;;121.63;57.60;;;5.70;89.70;;;;;;4805384;29;20047;-73
2022/03/03 06:36:11;;;;;;;120.25;56.85;;;5.70;89.70;;;;;;4805757;29;20426;-73
2022/03/03 06:38:39;;;;;;;123.90;59.28;;;5.70;89.70;;;;;;4804652;29;20055;-74
2022/03/03 06:41:06;;;;;;;128.57;58.10;;;5.70;89.70;;;;;;4804756;29;20047;-73
2022/03/03 06:43:35;;;;;;;121.32;57.53;;;5.70;89.70;;;;;;4805633;29;20142;-74
2022/03/03 06:46:04;;;;;;;122.63;57.63;;;5.80;89.70;;;;;;4805277;29;20047;-74
2022/03/03 06:48:32;;;;;;;119.20;58.13;;;5.80;89.70;;;;;;4805158;29;20398;-73
2022/03/03 06:51:03;;;;;;;116.88;56.33;;;5.80;89.60;;;;;;4805534;29;20055;-73
2022/03/03 06:53:35;;;;;;;118.57;57.90;;;5.80;89.60;;;;;;4805094;29;20047;-73
2022/03/03 06:56:07;;;;;;;121.30;57.28;;;5.80;89.60;;;;;;4805458;29;20068;-74
2022/03/03 06:58:36;;;;;;;113.30;56.15;;;5.80;89.60;;;;;;4805215;29;20074;-73
2022/03/03 07:01:12;;;;;;;121.72;60.58;;;5.80;89.60;;;;;;4802509;29;20054;-74
2022/03/03 07:03:41;;;;;;;115.50;56.70;;;5.80;89.60;;;;;;4804808;29;20067;-74
2022/03/03 07:06:09;;;;;;;120.05;58.50;;;5.80;89.60;;;;;;4804829;29;20051;-73
2022/03/03 07:08:38;;;;;;;116.07;57.85;;;5.80;89.60;;;;;;4805544;29;20062;-74
2022/03/03 07:11:07;;;;;;;114.72;57.35;;;5.80;89.60;;;;;;4810397;29;20493;-74
2022/03/03 07:13:36;;;;;;;121.70;59.80;;;5.80;89.60;;;;;;4827131;29;20047;-74
2022/03/03 07:16:22;;;;;;;122.28;58.17;;;5.80;89.50;;;;;;4802296;29;20399;-74
2022/03/03 07:18:52;;;;;;;121.95;59.42;;;5.90;89.60;;;;;;4803751;29;20398;-74
2022/03/03 07:21:45;;;;;;;127.30;60.00;;;5.90;89.60;;;;;;4802823;29;20134;-73
2022/03/03 07:24:22;;;;;;;;;;;5.90;89.50;;;;;;4805263;29;20406;-73
2022/03/03 07:26:53;;;;;;;129.35;59.85;;;5.90;89.50;;;;;;4818610;29;19932;-73
2022/03/03 07:29:26;;;;;;;135.23;62.33;;;6.00;89.50;;;;;;4804379;29;20046;-73
2022/03/03 07:31:56;;;;;;;132.88;63.33;;;6.00;89.50;;;;;;4801087;29;20135;-73
2022/03/03 07:34:47;;;;;;;130.02;62.55;;;6.00;89.50;;;;;;4803554;29;20046;-73
2022/03/03 07:37:20;;;;;;;129.27;62.00;;;6.10;89.50;;;;;;4803095;29;20066;-72
2022/03/03 07:39:47;;;;;;;;;;;6.10;89.40;;;;;;4819369;29;20062;-73
2022/03/03 07:42:17;;;;;;;132.40;59.83;;;6.10;89.50;;;;;;4802720;29;19925;-73
2022/03/03 07:44:46;;;;;;;115.15;57.08;;;6.20;89.50;;;;;;4804245;29;20058;-73
2022/03/03 07:47:14;;;;;;;128.77;60.60;;;6.20;89.40;;;;;;4804179;29;20065;-73
2022/03/03 07:49:45;;;;;;;121.35;58.33;;;6.20;89.40;;;;;;4811585;29;20509;-73
2022/03/03 07:52:13;;;;;;;127.45;58.15;;;6.20;89.40;;;;;;4813826;29;20066;-72
2022/03/03 07:54:41;;;;;;;115.28;56.83;;;6.20;89.40;;;;;;4804610;29;20051;-73
2022/03/03 07:57:15;;;;;;;119.40;58.92;;;6.20;89.40;;;;;;4803292;29;20051;-72
2022/03/03 07:59:55;;;;;;;121.78;59.92;;;6.20;89.40;;;;;;4798342;29;20062;-72
2022/03/03 08:02:24;;;;;;;114.13;58.10;;;6.30;89.40;;;;;;4804444;29;20069;-72
2022/03/03 08:04:52;;;;;;;115.60;57.30;;;6.30;89.40;;;;;;4805147;29;20059;-72
2022/03/03 08:07:20;;;;;;;119.93;58.40;;;6.30;89.40;;;;;;4803941;29;20055;-72
2022/03/03 08:09:52;;;;;;;120.68;59.60;;;6.30;89.30;;;;;;4804846;29;20047;-72
2022/03/03 08:12:23;;;;;;;107.32;56.80;;;6.40;89.30;;;;;;4803221;29;20410;-73
2022/03/03 08:14:53;;;;;;;108.15;54.90;;;6.40;89.20;;;;;;4804014;29;20524;-72
2022/03/03 08:17:23;;;;;;;108.97;56.28;;;6.40;89.20;;;;;;4802245;29;20614;-72
2022/03/03 08:19:54;;;;;;;109.70;55.55;;;6.40;89.20;;;;;;4802304;29;20054;-72
2022/03/03 08:22:25;;;;;;;106.38;54.60;;;6.40;89.20;;;;;;4802818;29;20178;-72
2022/03/03 08:24:57;;;;;;;108.03;53.47;;;6.40;89.10;;;;;;4803024;29;20055;-72
2022/03/03 08:27:26;;;;;;;111.22;57.25;;;6.40;89.10;;;;;;4804229;29;20050;-72
2022/03/03 08:29:54;;;;;;;110.30;55.85;;;6.50;89.10;;;;;;4804257;29;20057;-72
2022/03/03 08:32:23;;;;;;;104.75;54.42;;;6.50;89.10;;;;;;4803991;29;20421;-72
2022/03/03 08:35:09;;;;;;;109.22;56.38;;;6.50;89.00;;;;;;4818674;29;20047;-73
2022/03/03 08:37:39;;;;;;;109.22;55.15;;;6.50;89.00;;;;;;4803343;29;20505;-72
2022/03/03 08:40:11;;;;;;;109.40;54.92;;;6.50;89.00;;;;;;4803927;29;20524;-72
2022/03/03 08:42:44;;;;;;;109.93;57.05;;;6.50;89.00;;;;;;4803512;29;20102;-72
2022/03/03 08:45:12;;;;;;;114.50;58.47;;;6.50;89.00;;;;;;4802885;29;20495;-73
2022/03/03 08:47:42;;;;;;;109.82;54.45;;;6.50;89.00;;;;;;4801591;29;20513;-72
2022/03/03 08:50:13;;;;;;;111.75;56.70;;;6.60;89.00;;;;;;4803088;29;20067;-73
2022/03/03 08:52:55;;;;;;;109.85;56.25;;;6.60;89.00;;;;;;4803241;29;20055;-72
2022/03/03 08:55:24;;;;;;;105.63;54.53;;;6.60;89.00;;;;;;4805728;29;20059;-72
2022/03/03 08:57:52;;;;;;;105.93;55.15;;;6.70;89.00;;;;;;4807148;29;20059;-72
2022/03/03 09:00:21;;;;;;;112.78;56.55;;;6.70;89.00;;;;;;4806377;29;20061;-73
2022/03/03 09:02:49;;;;;;;110.82;54.50;;;6.70;89.00;;;;;;4807470;29;20055;-73
2022/03/03 09:05:17;;;;;;;105.10;57.00;;;6.80;88.90;;;;;;4806830;29;20051;-73
2022/03/03 09:07:45;;;;;;;107.00;55.75;;;6.80;88.90;;;;;;4806130;29;20061;-73
2022/03/03 09:10:14;;;;;;;97.13;52.17;;;6.80;88.80;;;;;;4806636;29;20043;-73
2022/03/03 09:12:42;;;;;;;90.72;50.53;;;6.90;88.80;;;;;;4796699;29;20051;-72
2022/03/03 09:15:10;;;;;;;94.95;51.25;;;6.90;88.70;;;;;;4805377;29;20057;-72
2022/03/03 09:17:38;;;;;;;87.93;48.05;;;6.90;88.60;;;;;;4807026;29;20055;-72
2022/03/03 09:20:11;;;;;;;95.95;50.58;;;6.90;88.50;;;;;;4806918;29;20050;-72
2022/03/03 09:22:41;;;;;;;82.43;48.97;;;6.90;88.50;;;;;;4807187;29;20047;-72
2022/03/03 09:25:09;;;;;;;94.47;48.97;;;6.90;88.40;;;;;;4806164;29;20054;-72
2022/03/03 09:27:38;;;;;;;90.82;49.22;;;6.90;88.40;;;;;;4820534;29;20059;-72
2022/03/03 09:30:07;;;;;;;93.18;49.75;;;6.90;88.30;;;;;;4806458;29;20524;-73
2022/03/03 09:32:35;;;;;;;83.63;48.72;;;6.90;88.40;;;;;;4805809;29;20564;-72
2022/03/03 09:35:04;;;;;;;87.35;48.13;;;6.80;88.40;;;;;;4794661;29;20526;-72
2022/03/03 09:37:32;;;;;;;85.15;49.30;;;6.80;88.40;;;;;;4806105;29;20046;-72
2022/03/03 09:39:59;;;;;;;84.07;48.00;;;6.90;88.40;;;;;;4806394;29;20051;-72
2022/03/03 09:42:34;;;;;;;87.03;48.00;;;6.90;88.40;;;;;;4806829;29;20446;-72
2022/03/03 09:45:07;;;;;;;89.78;47.10;;;6.90;88.40;;;;;;4805628;29;20058;-73
2022/03/03 09:47:37;;;;;;;81.72;47.42;;;7.00;88.30;;;;;;4805578;29;20055;-72
2022/03/03 09:50:06;;;;;;;86.43;47.42;;;7.00;88.30;;;;;;4806699;29;20513;-72
2022/03/03 09:52:35;;;;;;;88.93;47.70;;;7.10;88.20;;;;;;4806263;29;20414;-72
2022/03/03 09:55:03;;;;;;;87.28;48.20;;;7.20;88.20;;;;;;4806971;29;20406;-72
2022/03/03 09:57:31;;;;;;;88.40;48.25;;;7.30;88.10;;;;;;4805099;29;20675;-72
2022/03/03 10:00:02;;;;;;;84.55;48.75;;;7.30;88.00;;;;;;4805596;29;20497;-72
2022/03/03 10:02:58;;;;;;;79.75;46.55;;;7.50;88.00;;;;;;4806960;29;20078;-72
2022/03/03 10:05:34;;;;;;;83.20;48.55;;;7.60;87.70;;;;;;4806272;29;20051;-72
2022/03/03 10:08:06;;;;;;;84.97;47.60;;;7.70;87.60;;;;;;4806348;29;20548;-71
2022/03/03 10:10:36;;;;;;;84.53;48.40;;;7.70;87.40;;;;;;4810015;29;20047;-71
2022/03/03 10:13:04;;;;;;;76.30;45.78;;;7.80;87.30;;;;;;4806663;29;20066;-73
2022/03/03 10:15:33;;;;;;;78.80;45.80;;;7.80;87.20;;;;;;4805499;29;20051;-73
2022/03/03 10:18:04;;;;;;;80.78;46.17;;;7.90;87.10;;;;;;4806426;29;20125;-73
2022/03/03 10:20:53;;;;;;;79.05;45.65;;;7.90;87.10;;;;;;4806444;29;20046;-73
2022/03/03 10:23:33;;;;;;;76.57;45.20;;;7.90;86.90;;;;;;4805937;29;20066;-73
2022/03/03 10:26:04;;;;;;;78.60;44.70;;;8.00;86.70;;;;;;4805722;29;20066;-72
2022/03/03 10:28:33;;;;;;;86.57;47.55;;;7.90;86.70;;;;;;4806100;29;20054;-72
2022/03/03 10:31:09;;;;;;;78.32;45.50;;;8.00;86.70;;;;;;4806292;29;20051;-71
2022/03/03 10:33:44;;;;;;;82.93;46.20;;;8.00;86.60;;;;;;4805940;29;20051;-72
2022/03/03 10:36:30;;;;;;;81.13;47.20;;;8.10;86.50;;;;;;4806008;29;20042;-72
2022/03/03 10:39:03;;;;;;;84.85;46.70;;;8.10;86.60;;;;;;4803655;29;20063;-72
2022/03/03 10:41:43;;;;;;;81.95;47.28;;;8.10;86.60;;;;;;4804726;29;20057;-72
2022/03/03 10:44:13;;;;;;;79.60;46.45;;;8.20;86.50;;;;;;4805033;29;20043;-72
2022/03/03 10:47:11;;;;;;;80.32;46.72;;;8.20;86.50;;;;;;4819171;29;20058;-72
2022/03/03 10:49:44;;;;;;;81.82;46.60;;;8.20;86.50;;;;;;4805659;29;20490;-72
2022/03/03 10:52:23;;;;;;;86.43;48.60;;;8.30;86.60;;;;;;4805186;29;20046;-72
2022/03/03 10:55:01;;;;;;;82.05;46.53;;;8.30;86.50;;;;;;4805860;29;20405;-72
2022/03/03 10:57:40;;;;;;;89.90;46.70;;;8.30;86.50;;;;;;4819886;29;20221;-72
2022/03/03 11:00:09;;;;;;;92.75;46.17;;;8.30;86.50;;;;;;4805066;29;20051;-72
2022/03/03 11:02:39;;;;;;;82.35;47.55;;;8.30;86.50;;;;;;4804229;29;20055;-72
2022/03/03 11:05:10;;;;;;;81.20;46.22;;;8.30;86.50;;;;;;4818895;29;20058;-72
2022/03/03 11:07:43;;;;;;;77.55;46.30;;;8.30;86.50;;;;;;4805415;29;20061;-72
2022/03/03 11:10:16;;;;;;;80.35;47.38;;;8.30;86.40;;;;;;4805814;29;20397;-72
2022/03/03 11:12:45;;;;;;;78.78;45.88;;;8.30;86.40;;;;;;4803273;29;20055;-72
2022/03/03 11:15:15;;;;;;;83.85;45.38;;;8.40;86.30;;;;;;4805150;29;20059;-72
2022/03/03 11:17:43;;;;;;;78.70;46.08;;;8.50;86.30;;;;;;4805357;29;20054;-72
2022/03/03 11:20:14;;;;;;;72.65;45.65;;;8.40;86.20;;;;;;4805018;29;20047;-72
2022/03/03 11:22:43;;;;;;;78.72;46.40;;;8.40;86.10;;;;;;4799677;29;20055;-73
2022/03/03 11:25:19;;;;;;;91.38;48.78;;;8.50;86.10;;;;;;4815627;29;20055;-72
2022/03/03 11:27:47;;;;;;;80.43;47.38;;;8.50;86.10;;;;;;4793595;29;20111;-72
2022/03/03 11:30:24;;;;;;;87.53;47.80;;;8.40;86.10;;;;;;4786769;30;20055;-72
2022/03/03 11:33:17;;;;;;;88.30;47.97;;;8.40;86.10;;;;;;4786451;29;20059;-72
2022/03/03 11:35:49;;;;;;;80.85;48.45;;;8.30;86.00;;;;;;4787285;29;20530;-72
2022/03/03 11:38:18;;;;;;;81.20;47.60;;;8.40;86.00;;;;;;4800053;29;20070;-72
2022/03/03 11:40:54;;;;;;;81.20;46.78;;;8.30;86.00;;;;;;4802976;29;20046;-74
2022/03/03 11:43:23;;;;;;;77.70;46.35;;;8.40;86.00;;;;;;4790164;29;20409;-72
2022/03/03 11:45:53;;;;;;;82.85;46.95;;;8.40;85.90;;;;;;4805119;29;20405;-72
2022/03/03 11:48:22;;;;;;;82.68;47.05;;;8.40;85.90;;;;;;4803821;29;20066;-72
2022/03/03 11:50:52;;;;;;;76.82;46.70;;;8.40;85.80;;;;;;4803636;29;20062;-73
2022/03/03 11:53:24;;;;;;;81.13;47.15;;;8.40;85.80;;;;;;4818528;29;20061;-73
2022/03/03 11:55:55;;;;;;;79.87;46.97;;;8.40;85.70;;;;;;4819401;29;20406;-72
2022/03/03 11:58:27;;;;;;;80.47;45.97;;;8.40;85.70;;;;;;4804616;29;20047;-72
2022/03/03 12:01:03;;;;;;;83.65;47.58;;;8.40;85.70;;;;;;4804860;29;20047;-72
2022/03/03 12:03:31;;;;;;;83.45;49.05;;;8.50;85.70;;;;;;4803838;29;20050;-73
2022/03/03 12:06:11;;;;;;;84.28;48.03;;;8.50;85.60;;;;;;4804823;29;20050;-72
2022/03/03 12:08:40;;;;;;;85.22;49.55;;;8.50;85.60;;;;;;4802125;29;20110;-72
2022/03/03 12:11:11;;;;;;;84.30;47.80;;;8.60;85.60;;;;;;4790158;29;20300;-72
2022/03/03 12:13:40;;;;;;;83.60;46.60;;;8.60;85.50;;;;;;4805251;29;20062;-73
2022/03/03 12:16:20;;;;;;;88.55;47.00;;;8.60;85.50;;;;;;4805590;29;20062;-72
2022/03/03 12:18:57;;;;;;;83.72;48.60;;;8.70;85.50;;;;;;4803974;29;20066;-72
2022/03/03 12:21:26;;;;;;;93.35;49.83;;;8.70;85.50;;;;;;4803529;29;20051;-72
2022/03/03 12:24:22;;;;;;;85.53;48.72;;;8.70;85.50;;;;;;4804355;29;20061;-72
2022/03/03 12:26:55;;;;;;;82.70;48.63;;;8.70;85.50;;;;;;4804287;29;20051;-72
2022/03/03 12:29:48;;;;;;;85.80;48.33;;;8.70;85.50;;;;;;4806962;29;20058;-72
2022/03/03 12:32:44;;;;;;;79.38;47.33;;;8.70;85.40;;;;;;4809051;29;20050;-72
2022/03/03 12:35:24;;;;;;;83.30;47.85;;;8.80;85.40;;;;;;4798513;29;20715;-72
2022/03/03 12:37:52;;;;;;;77.07;46.00;;;8.80;85.40;;;;;;4795815;29;20051;-73
2022/03/03 12:40:24;;;;;;;84.07;49.33;;;8.80;85.50;;;;;;4806428;29;20059;-72
2022/03/03 12:42:52;;;;;;;90.20;51.58;;;8.90;85.40;;;;;;4807554;29;20066;-72
2022/03/03 12:45:20;;;;;;;84.43;48.25;;;9.10;85.50;;;;;;4808043;29;20062;-72
2022/03/03 12:47:52;;;;;;;83.72;50.10;;;9.30;85.40;;;;;;4805871;29;20058;-72